Smith Valley, Nevada Weather observations

Data are for 10 minute period ending at time listed.
 Day   Time   Solar   Ave.   Ave.  Ave.  Vector  Max.   Baro.   Total    
  of    of     Rad.   Air    Rel.  Wind   Wind   Wind  Press.  Precip.   
Year   Day            Temp.  Hum.  Speed  Dir.   Gust                    
2026   (PST)  Kw/m2    F      %     mph   deg.    mph    mb.     in.     
-------------------------------------------------------------------------
 244    1:20   0.00   58.6    46    2.6   140     5.0   849.7    0.00 
 244    1:30   0.00   60.4    44    2.8   130     3.5   849.7    0.00 
 244    1:40   0.00   58.4    46    2.8     1     4.6   849.7    0.00 
 244    1:50   0.00   58.4    47    2.3    99     4.6   849.8    0.00 
 244    2:00   0.00   56.8    50    3.1    86     6.0   849.8    0.00 
 244    2:10   0.00   58.4    42    2.8   100     4.6   849.8    0.00 
 244    2:20   0.00   60.6    38    2.3    97     5.3   849.8    0.00 
 244    2:30   0.00   59.4    40    1.7    76     4.1   849.9    0.00 
 244    2:40   0.00   57.4    48    4.8   113     6.2   849.8    0.00 
 244    2:50   0.00   55.8    51    4.5   114     5.9   849.8    0.00 
 244    3:00   0.00   56.2    47    4.8   112     6.8   849.8    0.00 
 244    3:10   0.00   57.0    44    5.3   105     7.7   849.8    0.00 
 244    3:20   0.00   57.0    42    4.2   119     7.4   849.8    0.00 
 244    3:30   0.00   55.1    47    2.2   257     5.0   849.9    0.00 
 244    3:40   0.00   55.6    44    2.6   282     4.1   850.0    0.00 
 244    3:50   0.00   54.4    50    1.3    51     2.5   850.1    0.00 
 244    4:00   0.00   54.3    47    2.6    78     4.3   850.1    0.00 
 244    4:10   0.00   52.4    50    1.6   211     4.7   850.2    0.00 
 244    4:20   0.00   52.7    51    2.2    72     4.8   850.3    0.00 
 244    4:30   0.00   50.8    54    3.1   141     4.8   850.4    0.00 
 244    4:40   0.00   51.2    46    1.8   174     4.3   850.5    0.00 
 244    4:50   0.00   52.6    45    1.5   225     4.0   850.6    0.00 
 244    5:00   0.00   50.5    53    1.3   128     2.7   850.6    0.00 
 244    5:10   0.00   50.5    49    3.2   114     5.3   850.6    0.00 
 244    5:20   0.00   50.1    50    2.9    70     4.0   850.7    0.00 
 244    5:30   0.00   47.9    57    3.3    96     6.5   850.7    0.00 
 244    5:40   0.01   47.2    58    3.1   101     5.1   850.8    0.00 
 244    5:50   0.02   47.7    55    1.5    84     2.3   850.8    0.00 
 244    6:00   0.08   47.2    57    2.1    37     3.3   850.8    0.00 
 244    6:10   0.12   48.7    54    4.3   311     6.0   850.9    0.00 
 244    6:20   0.15   52.4    43    2.8   338     4.9   851.0    0.00 
 244    6:30   0.19   54.5    44    2.7   272     5.2   851.2    0.00 
 244    6:40   0.22   56.1    40    1.2   271     3.6   851.3    0.00 
 244    6:50   0.25   58.9    36    1.8   301     3.3   851.3    0.00 
 244    7:00   0.29   60.9    35    1.1    17     3.4   851.2    0.00 
 244    7:10   0.32   63.0    32    1.7   246     3.6   851.2    0.00 
 244    7:20   0.36   64.0    35    1.4   106     3.8   851.1    0.00 
 244    7:30   0.40   64.8    35    3.8    87     7.1   850.9    0.00 
 244    7:40   0.43   65.6    32    4.1   127     7.0   850.9    0.00 
 244    7:50   0.47   68.6    24    5.9   175     9.7   850.8    0.00 
 244    8:00   0.51   69.8    23    6.9   178    11.3   850.7    0.00 
 244    8:10   0.55   70.2    22    6.1   177    10.9   850.7    0.00 
 244    8:20   0.58   70.8    21    8.7   182    18.0   850.8    0.00 
 244    8:30   0.62   72.3    17   11.1   209    17.6   850.7    0.00 
 244    8:40   0.65   72.6    18   10.4   192    15.3   850.8    0.00 
 244    8:50   0.68   73.0    17   11.0   209    16.4   850.8    0.00 
 244    9:00   0.71   73.9    17    8.4   187    15.4   850.8    0.00 
 244    9:10   0.75   73.9    16    9.5   192    16.3   850.8    0.00 
 244    9:20   0.78   74.2    16    8.6   194    14.3   850.9    0.00 
 244    9:30   0.81   74.4    16    6.9   189    13.3   850.8    0.00 
 244    9:40   0.83   74.9    17    5.2   143    11.5   850.9    0.00 
 244    9:50   0.86   74.8    17    6.0   141    14.2   851.0    0.00 
 244   10:00   0.89   75.2    18    6.8   126    13.2   851.0    0.00 
 244   10:10   0.91   74.9    16    5.2   123    10.5   851.0    0.00 
 244   10:20   0.93   75.4    15    3.0   266     6.4   851.0    0.00 
 244   10:30   0.96   76.1    15    4.2   180     9.0   851.0    0.00 
 244   10:40   0.97   76.7    16    5.5   139    13.7   850.9    0.00 
 244   10:50   1.00   76.7    14    4.1   152     9.8   850.9    0.00 
 244   11:00   1.00   78.3    12    5.7   230    11.1   850.8    0.00 
 244   11:10   1.06   78.2    14    3.3   155     7.8   850.8    0.00 
 244   11:20   1.07   79.1    11    6.5   212    17.0   850.7    0.00 
 244   11:30   0.99   79.0    10    9.2   194    18.2   850.8    0.00 
 244   11:40   0.94   79.6    10   10.2   201    17.2   850.7    0.00 
 244   11:50   1.02   79.4    10   10.4   197    20.3   850.6    0.00 
 244   12:00   1.06   80.2    11   11.4   217    15.6   850.4    0.00 
 244   12:10   1.12   80.5    11    8.6   224    15.7   850.3    0.00 
 244   12:20   1.08   79.9    11    8.0   240    15.0   850.2    0.00 
 244   12:30   0.95   80.0    11    9.3   202    15.8   850.0    0.00 
 244   12:40   0.86   80.6    11    9.6   215    17.7   849.9    0.00 
 244   12:50   0.92   80.6    11   10.5   215    15.8   849.8    0.00 
 244   13:00   1.11   81.6    11    9.4   220    17.1   849.7    0.00 
 244   13:10   1.00   81.5    11   10.2   202    16.0   849.6    0.00 
 244   13:20   0.88   81.6    10    9.4   203    15.2   849.6    0.00 
 244   13:30   0.81   80.7    10    8.6   240    16.0   849.5    0.00 
 244   13:40   0.92   81.4    10    6.8   213    13.8   849.5    0.00 
 244   13:50   0.83   81.5    10   10.7   210    18.4   849.4    0.00 
 244   14:00   0.62   81.2    10   13.1   205    21.9   849.3    0.00 
 244   14:10   0.86   81.0    10   11.9   214    18.0   849.3    0.00 
 244   14:20   0.62   82.1    10   11.8   210    20.8   849.2    0.00 
 244   14:30   0.77   81.0    10   14.2   225    22.2   849.1    0.00 
 244   14:40   0.78   80.8    12   13.2   230    19.3   849.0    0.00 
 244   14:50   0.78   80.5    13   11.7   236    23.9   849.1    0.00 
 244   15:00   0.62   79.6    13   14.4   247    23.3   849.1    0.00 
 244   15:10   0.44   78.8    12   12.5   230    23.5   849.1    0.00 
 244   15:20   0.67   79.2    12   14.3   225    21.0   849.0    0.00 
 244   15:30   0.61   79.2    11   14.9   232    25.5   849.0    0.00 
 244   15:40   0.38   78.2    12   16.7   216    25.4   849.0    0.00 
 244   15:50   0.29   76.8    13   14.6   223    21.1   849.0    0.00 
 244   16:00   0.27   76.0    14   12.9   225    20.4   849.0    0.00 
 244   16:10   0.20   75.3    14   12.8   226    17.5   849.0    0.00 
 244   16:20   0.24   75.0    14   12.7   247    18.8   849.0    0.00 
 244   16:30   0.25   75.0    14   13.8   243    20.1   848.9    0.00 
 244   16:40   0.20   74.5    14   12.9   229    19.2   848.9    0.00 
 244   16:50   0.41   74.8    15   13.5   238    22.6   848.8    0.00 
 244   17:00   0.44   75.6    14   15.6   247    26.6   848.8    0.00 
 244   17:10   0.37   75.4    15   13.6   233    19.8   848.9    0.00 
 244   17:20   0.29   74.7    15   14.7   243    23.0   849.0    0.00 
 244   17:30   0.22   73.7    16   13.5   232    22.8   849.0    0.00 
 244   17:40   0.18   72.7    15   15.1   230    21.9   849.0    0.00 
 244   17:50   0.07   71.7    16   13.9   246    20.8   849.0    0.00 
 244   18:00   0.02   70.5    16   13.6   237    20.3   848.8    0.00 
 244   18:10   0.02   69.1    18   12.0   233    18.5   848.8    0.00 
 244   18:20   0.01   68.6    18   12.1   235    17.0   848.8    0.00 
 244   18:30   0.01   68.0    19    9.6   238    12.8   848.9    0.00 
 244   18:40   0.00   67.4    20   10.1   251    14.9   849.1    0.00 
 244   18:50   0.00   66.8    24    9.7   256    16.0   849.1    0.00 
 244   19:00   0.00   66.5    22    9.7   259    15.9   849.3    0.00 
 244   19:10   0.00   65.8    23    6.6   253     9.4   849.4    0.00 
 244   19:20   0.00   64.6    23    7.2   247    11.6   849.5    0.00 
 244   19:30   0.00   64.6    22    6.8   241     9.0   849.6    0.00 
 244   19:40   0.00   63.8    22    6.2   245     9.6   849.8    0.00 
 244   19:50   0.00   63.3    22    6.5   246     9.7   849.9    0.00 
 244   20:00   0.00   61.8    24    5.0   242     6.4   850.1    0.00 
 244   20:10   0.00   60.2    27    4.9   243     7.3   850.2    0.00 
 244   20:20   0.00   60.8    25    4.0   228     6.8   850.3    0.00 
 244   20:30   0.00   59.6    29    4.0   228     5.2   850.5    0.00 
 244   20:40   0.00   58.8    30    4.3   257     6.6   850.6    0.00 
 244   20:50   0.00   57.8    29    4.1   262     7.6   850.7    0.00 
 244   21:00   0.00   58.5    27    4.3   259     5.7   850.9    0.00 
 244   21:10   0.00   58.9    26    3.2   277     5.7   851.0    0.00 
 244   21:20   0.00   59.5    25    3.0   261     6.8   850.9    0.00 
 244   21:30   0.00   59.0    25    1.4   211     4.2   850.9    0.00 
 244   21:40   0.00   59.0    26    1.3    69     2.7   850.8    0.00 
 244   21:50   0.00   58.9    25    1.6   277     3.7   850.8    0.00 
 244   22:00   0.00   59.0    24    2.7   337     8.2   850.8    0.00 
 244   22:10   0.00   61.3    19    2.0   301     5.8   850.8    0.00 
 244   22:20   0.00   60.2    21    1.6   256     3.6   850.9    0.00 
 244   22:30   0.00   57.2    26    0.6    32     2.5   851.0    0.00 
 244   22:40   0.00   57.2    22    2.0   227     4.3   851.1    0.00 
 244   22:50   0.00   56.9    23    1.2   284     2.5   851.2    0.00 
 244   23:00   0.00   56.8    24    1.1   137     4.2   851.2    0.00 
 244   23:10   0.00   54.6    29    1.2   114     3.6   851.3    0.00 
 244   23:20   0.00   53.4    28    0.7   143     1.9   851.3    0.00 
 244   23:30   0.00   54.0    25    3.3   116     7.4   851.4    0.00 
 244   23:40   0.00   55.3    22    0.7   276     5.0   851.5    0.00 
 244   23:50   0.00   54.9    22    0.4   118     1.8   851.6    0.00 
 245    0:00   0.00   54.7    23    4.3   287     9.7   851.7    0.00 
 245    0:10   0.00   56.3    27    5.6   290     9.7   851.8    0.00 
 245    0:20   0.00   55.7    28    3.4   281     6.0   851.9    0.00 
 245    0:30   0.00   55.0    29    2.6    91     5.5   851.8    0.00 
 245    0:40   0.00   54.6    27    2.5   221     7.6   851.8    0.00 
 245    0:50   0.00   56.8    22    4.1   231     9.0   851.8    0.00 
 245    1:00   0.00   57.2    22    4.2   204     6.1   851.8    0.00 
 245    1:10   0.00   56.5    21    4.6   203     7.4   851.6    0.00 

Return to Smith Valley graphs page.


Western Regional Climate Center,wrcc@dri.edu